Madison, Tennessee
Current Conditions -  °F | °C
As of 5:53 PM on Friday 28 Nov 2014 (Local Time) from KBNA Reporting Station
Few Clouds Few Clouds  
Wind Chill: 36°   Ceiling: Unl
Heat Index: 41°   Visibility: 10mi
Dew Point: 22°   Wind: 8mph
Humidity: 47%   Direction: 160°SSE
Pressure: 30.2"   Gusts: NA
Location:  36.26°N, 86.71°W
Report Text: KBNA 282353Z 16007KT 10SM FEW250 05/M06 A3020 RMK AO2 SLP230 T00501056 10089 20050 56015
Loading
Personal Weather Stations






























Interactive Weather Map New forecast layout! Learn more

10-Day Weather Forecast

Advertisements
Track Severe Weather on mobile